Time;durP1;ratioP1;P1;durP2;ratioP2;P2;SDS_P1;SDS_P2;PMS_P1;PMS_P2;Temp;Humidity;BMP_temperature;BMP_pressure;BME280_temperature;BME280_humidity;BME280_pressure;Samples;Min_cycle;Max_cycle;Signal;HPM_P1;HPM_P2
2022/04/30 00:02:21;;;;;;;2.65;1.80;;;;;;;20.61;45.02;101477.73;1693705;84;21057;-82
2022/04/30 00:04:47;;;;;;;3.17;1.98;;;;;;;20.61;45.02;101474.97;1696696;83;21346;-82
2022/04/30 00:07:17;;;;;;;2.80;1.85;;;;;;;20.62;45.02;101485.47;1693695;84;21055;-82
2022/04/30 00:09:50;;;;;;;3.75;2.10;;;;;;;20.60;45.02;101479.41;1693816;84;21009;-82
2022/04/30 00:12:16;;;;;;;2.52;1.82;;;;;;;20.60;45.01;101482.99;1693425;84;21170;-82
2022/04/30 00:14:44;;;;;;;2.30;1.60;;;;;;;20.61;45.01;101483.81;1693613;84;21063;-82
2022/04/30 00:17:10;;;;;;;2.10;1.82;;;;;;;20.61;45.01;101485.20;1693626;84;21193;-82
2022/04/30 00:19:37;;;;;;;3.50;2.00;;;;;;;20.60;45.00;101484.94;1693319;84;20960;-82
2022/04/30 00:22:03;;;;;;;2.95;1.82;;;;;;;20.60;45.00;101489.08;1693653;84;21063;-82
2022/04/30 00:24:30;;;;;;;2.05;1.72;;;;;;;20.60;45.00;101484.94;1693656;84;20993;-82
2022/04/30 00:26:56;;;;;;;2.22;1.80;;;;;;;20.59;45.00;101481.34;1698968;83;21038;-82
2022/04/30 00:29:23;;;;;;;2.92;2.00;;;;;;;20.58;44.97;101485.22;1688804;83;22044;-82
2022/04/30 00:31:50;;;;;;;2.20;1.80;;;;;;;20.59;44.99;101477.20;1711114;83;21094;-82
2022/04/30 00:34:16;;;;;;;3.52;1.70;;;;;;;20.59;44.97;101481.34;1688171;83;21675;-82
2022/04/30 00:36:42;;;;;;;2.00;1.77;;;;;;;20.59;44.97;101476.38;1710995;83;21453;-82
2022/04/30 00:39:09;;;;;;;2.45;1.80;;;;;;;20.59;44.97;101475.81;1688774;83;21528;-82
2022/04/30 00:41:36;;;;;;;3.27;2.10;;;;;;;20.58;44.97;101477.52;1710815;83;23130;-82
2022/04/30 00:44:03;;;;;;;2.25;1.85;;;;;;;20.58;44.96;101481.08;1710669;83;21525;-82
2022/04/30 00:46:35;;;;;;;2.60;1.90;;;;;;;20.58;44.95;101474.16;1710980;83;21122;-82
2022/04/30 00:49:02;;;;;;;2.45;2.10;;;;;;;20.57;44.96;101480.02;1710733;83;21074;-82
2022/04/30 00:51:28;;;;;;;2.77;1.75;;;;;;;20.56;44.97;101479.19;1710806;83;21106;-82
2022/04/30 00:53:56;;;;;;;2.33;1.98;;;;;;;20.58;44.96;101484.43;1710572;83;21150;-82
2022/04/30 00:56:50;;;;;;;2.65;2.00;;;;;;;20.56;44.97;101477.81;1710745;83;21639;-82
2022/04/30 00:59:20;;;;;;;2.25;1.80;;;;;;;20.57;44.95;101484.16;1688536;83;21070;-82
2022/04/30 01:01:52;;;;;;;3.77;1.92;;;;;;;20.56;44.94;101476.42;1710940;83;21023;-82
2022/04/30 01:04:21;;;;;;;2.45;2.05;;;;;;;20.57;44.93;101483.60;1711087;83;21194;-82
2022/04/30 01:07:00;;;;;;;2.47;1.80;;;;;;;20.56;44.94;101479.19;1712422;83;21150;-82
2022/04/30 01:09:28;;;;;;;2.30;1.77;;;;;;;20.56;44.92;101475.59;1710514;83;21062;-82
2022/04/30 01:12:09;;;;;;;2.40;2.00;;;;;;;20.55;44.93;101476.16;1711251;83;21086;-82
2022/04/30 01:14:35;;;;;;;2.97;1.80;;;;;;;20.55;44.93;101473.95;1711155;83;21043;-81
2022/04/30 01:17:05;;;;;;;2.00;1.60;;;;;;;20.54;44.92;101476.48;1711516;83;21074;-81
2022/04/30 01:19:35;;;;;;;2.90;1.90;;;;;;;20.54;44.93;101476.48;1711408;83;21441;-81
2022/04/30 01:22:03;;;;;;;2.27;1.87;;;;;;;20.54;44.93;101477.86;1710914;83;21039;-81
2022/04/30 01:24:30;;;;;;;2.47;2.00;;;;;;;20.54;44.92;101473.71;1711192;83;21074;-81
2022/04/30 01:26:58;;;;;;;1.92;1.60;;;;;;;20.53;44.93;101471.51;1707726;83;21073;-81
2022/04/30 01:29:25;;;;;;;2.62;2.12;;;;;;;20.53;44.91;101470.68;1693528;84;21047;-81
2022/04/30 01:37:25;;;;;;;3.40;2.30;;;;;;;20.52;44.90;101465.71;1693454;84;21095;-82
2022/04/30 01:40:06;;;;;;;2.92;2.22;;;;;;;20.51;44.87;101457.16;1693587;84;21016;-82
2022/04/30 01:42:44;;;;;;;2.67;2.10;;;;;;;20.51;44.87;101452.45;1693906;84;21564;-82
2022/04/30 01:45:11;;;;;;;2.62;2.33;;;;;;;20.51;44.87;101454.39;1693020;84;21573;-82
2022/04/30 01:47:46;;;;;;;2.62;2.20;;;;;;;20.50;44.87;101447.21;1673188;84;21024;-82
2022/04/30 01:50:13;;;;;;;2.10;1.90;;;;;;;20.50;44.87;101447.21;1693896;84;21449;-81
2022/04/30 01:52:39;;;;;;;2.60;2.25;;;;;;;20.50;44.87;101445.83;1693432;84;21120;-81
2022/04/30 01:55:11;;;;;;;2.67;2.27;;;;;;;20.50;44.88;101449.97;1693434;84;21048;-82
2022/04/30 01:57:47;;;;;;;2.92;2.20;;;;;;;20.49;44.89;101452.50;1693820;84;21130;-82
2022/04/30 02:00:14;;;;;;;3.27;2.00;;;;;;;20.50;44.88;101449.97;1693511;84;21544;-82
2022/04/30 02:02:44;;;;;;;2.45;2.22;;;;;;;20.49;44.86;101456.09;1693889;84;21046;-82
2022/04/30 02:05:12;;;;;;;3.12;2.25;;;;;;;20.48;44.86;101450.30;1693582;84;21052;-82
2022/04/30 02:07:52;;;;;;;2.45;2.05;;;;;;;20.48;44.87;101450.85;1693521;84;21680;-81
2022/04/30 02:10:18;;;;;;;2.50;2.10;;;;;;;20.49;44.86;101446.97;1694234;84;22329;-82
2022/04/30 02:12:44;;;;;;;3.10;2.40;;;;;;;20.48;44.85;101453.62;1673409;84;21297;-82
2022/04/30 02:15:12;;;;;;;2.77;2.20;;;;;;;20.48;44.83;101449.47;1694046;84;22230;-82
2022/04/30 02:17:40;;;;;;;3.52;2.37;;;;;;;20.48;44.83;101440.62;1673947;84;22166;-82
2022/04/30 02:20:25;;;;;;;2.80;2.40;;;;;;;20.48;44.85;101443.94;1693578;84;21032;-82
2022/04/30 02:22:55;;;;;;;2.87;2.33;;;;;;;20.48;44.83;101443.38;1693860;84;21116;-82
2022/04/30 02:25:22;;;;;;;3.60;2.25;;;;;;;20.47;44.81;101440.91;1693357;84;21537;-82
2022/04/30 02:27:55;;;;;;;3.08;2.25;;;;;;;20.46;44.82;101445.61;1699908;83;21008;-82
2022/04/30 02:30:23;;;;;;;2.60;2.20;;;;;;;20.46;44.81;101439.26;1710140;83;21047;-82
2022/04/30 02:32:56;;;;;;;3.70;2.50;;;;;;;20.46;44.80;101440.09;1711375;83;21050;-82
2022/04/30 02:35:33;;;;;;;2.40;1.90;;;;;;;20.46;44.80;101434.56;1710208;83;21472;-82
2022/04/30 02:38:00;;;;;;;2.65;2.35;;;;;;;20.46;44.79;101433.17;1711017;83;21535;-82
2022/04/30 02:40:29;;;;;;;2.50;2.30;;;;;;;20.45;44.80;101428.77;1711434;82;21512;-82
2022/04/30 02:42:56;;;;;;;2.25;1.80;;;;;;;20.46;44.79;101430.41;1711368;83;21035;-82
2022/04/30 02:45:23;;;;;;;2.55;2.10;;;;;;;20.45;44.81;101426.00;1688780;83;21028;-82
2022/04/30 02:47:53;;;;;;;2.65;2.17;;;;;;;20.46;44.79;101424.05;1711247;83;21925;-82
2022/04/30 02:50:18;;;;;;;3.62;2.15;;;;;;;20.46;44.79;101428.20;1710931;83;21129;-82
2022/04/30 02:52:45;;;;;;;2.92;2.33;;;;;;;20.45;44.75;101423.83;1710882;83;21070;-82
2022/04/30 02:55:12;;;;;;;3.22;2.30;;;;;;;20.45;44.77;101426.00;1711031;83;21043;-82
2022/04/30 03:00:32;;;;;;;2.52;2.10;;;;;;;20.46;44.76;101424.05;1711062;83;21225;-81
2022/04/30 03:02:58;;;;;;;2.20;1.85;;;;;;;20.45;44.73;101424.62;1711117;83;21671;-81
2022/04/30 03:05:24;;;;;;;2.50;2.20;;;;;;;20.45;44.74;101426.59;1711249;83;21063;-81
2022/04/30 03:07:51;;;;;;;2.47;2.27;;;;;;;20.46;44.71;101424.05;1710966;83;21090;-81
2022/04/30 03:10:17;;;;;;;2.65;2.20;;;;;;;20.45;44.73;101423.23;1711131;83;21119;-81
2022/04/30 03:12:43;;;;;;;2.42;2.05;;;;;;;20.44;44.71;101429.91;1688771;83;21065;-81
2022/04/30 03:15:11;;;;;;;2.27;1.87;;;;;;;20.44;44.69;101428.53;1710836;83;21568;-81
2022/04/30 03:23:07;;;;;;;3.00;2.40;;;;;;;20.44;44.68;101435.44;1692298;83;21070;-82
2022/04/30 03:25:33;;;;;;;3.67;2.33;;;;;;;20.43;44.67;101427.44;1710988;83;21117;-82
2022/04/30 03:27:59;;;;;;;2.55;2.20;;;;;;;20.43;44.67;101435.17;1686080;83;21151;-82
2022/04/30 03:30:26;;;;;;;2.77;2.20;;;;;;;20.43;44.67;101426.87;1693642;84;21079;-82
2022/04/30 03:32:52;;;;;;;3.10;2.20;;;;;;;20.43;44.68;101423.28;1672458;84;21028;-82
2022/04/30 03:35:18;;;;;;;2.70;2.08;;;;;;;20.42;44.65;101426.61;1673873;84;21305;-82
2022/04/30 03:37:44;;;;;;;2.17;1.82;;;;;;;20.42;44.68;101428.55;1693742;84;21168;-82
2022/04/30 03:40:11;;;;;;;2.90;2.40;;;;;;;20.42;44.68;101432.14;1693423;84;21020;-82
2022/04/30 03:42:37;;;;;;;2.92;2.20;;;;;;;20.42;44.66;101440.98;1693847;84;21518;-82
2022/04/30 03:45:05;;;;;;;2.47;1.75;;;;;;;20.42;44.66;101440.98;1693735;84;20993;-82
2022/04/30 03:47:31;;;;;;;2.70;1.90;;;;;;;20.42;44.64;101442.37;1693531;84;22136;-82
2022/04/30 03:49:59;;;;;;;3.80;2.15;;;;;;;20.42;44.65;101447.34;1693730;84;21309;-82
2022/04/30 03:52:25;;;;;;;2.25;1.95;;;;;;;20.41;44.63;101436.61;1673867;84;21112;-82
2022/04/30 03:54:51;;;;;;;3.25;2.02;;;;;;;20.41;44.63;101441.55;1693510;84;21110;-82
2022/04/30 03:57:18;;;;;;;2.35;1.92;;;;;;;20.41;44.63;101437.98;1693885;84;21088;-82
2022/04/30 03:59:45;;;;;;;2.60;2.08;;;;;;;20.41;44.63;101441.55;1693803;84;21091;-82
2022/04/30 04:02:11;;;;;;;2.35;1.95;;;;;;;20.41;44.63;101440.16;1693528;84;21576;-82
2022/04/30 04:04:37;;;;;;;3.65;2.12;;;;;;;20.41;44.61;101443.52;1673338;84;21072;-82
2022/04/30 04:07:04;;;;;;;2.62;2.10;;;;;;;20.41;44.61;101451.22;1673644;84;21067;-82
2022/04/30 04:09:30;;;;;;;2.52;1.90;;;;;;;20.42;44.61;101452.87;1693607;84;20944;-82
2022/04/30 04:11:56;;;;;;;3.10;2.25;;;;;;;20.41;44.61;101449.84;1693815;84;21059;-82
2022/04/30 04:19:52;;;;;;;2.47;2.15;;;;;;;20.41;44.52;101443.52;1696660;84;21071;-82
2022/04/30 04:22:18;;;;;;;2.02;1.80;;;;;;;20.41;44.50;101446.28;1673408;84;21019;-82
2022/04/30 04:27:29;;;;;;;2.42;1.80;;;;;;;20.42;44.44;101447.34;1693577;84;21628;-82
2022/04/30 04:29:56;;;;;;;2.12;1.92;;;;;;;20.42;44.43;101450.10;1693651;84;21131;-82
2022/04/30 04:32:22;;;;;;;2.45;2.22;;;;;;;20.41;44.41;101451.22;1693559;84;21064;-82
2022/04/30 04:34:49;;;;;;;2.12;1.80;;;;;;;20.43;44.40;101450.92;1673508;84;21541;-82
2022/04/30 04:37:15;;;;;;;2.83;2.00;;;;;;;20.42;44.38;101451.48;1693788;84;21102;-82
2022/04/30 04:39:42;;;;;;;2.52;2.08;;;;;;;20.42;44.38;101457.02;1693848;83;21205;-82
2022/04/30 04:42:08;;;;;;;2.67;1.92;;;;;;;20.42;44.38;101458.39;1673491;84;21130;-83
2022/04/30 04:44:34;;;;;;;2.45;1.90;;;;;;;20.43;44.37;101457.84;1693978;84;21100;-82
2022/04/30 04:47:01;;;;;;;2.87;1.70;;;;;;;20.42;44.34;101457.02;1673644;84;20984;-82
2022/04/30 04:49:28;;;;;;;2.47;1.80;;;;;;;20.43;44.32;101469.72;1693710;84;21059;-82
2022/04/30 04:51:54;;;;;;;2.30;1.87;;;;;;;20.44;44.29;101467.22;1693934;84;21587;-82
2022/04/30 04:54:21;;;;;;;2.12;1.87;;;;;;;20.44;44.32;101462.25;1693794;84;21067;-82
2022/04/30 04:56:47;;;;;;;2.22;1.77;;;;;;;20.44;44.28;101467.22;1693685;84;21095;-82
2022/04/30 04:59:13;;;;;;;2.55;2.02;;;;;;;20.45;44.28;101465.28;1673724;84;20976;-82
2022/04/30 05:01:40;;;;;;;2.75;1.70;;;;;;;20.44;44.27;101471.92;1693860;84;21039;-82
2022/04/30 05:04:08;;;;;;;2.70;1.98;;;;;;;20.44;44.25;101466.39;1693717;84;21370;-82
2022/04/30 05:06:35;;;;;;;2.05;1.60;;;;;;;20.45;44.24;101476.34;1693649;84;21012;-82
2022/04/30 05:09:02;;;;;;;2.72;1.98;;;;;;;20.44;44.21;101468.61;1693927;84;21008;-82
2022/04/30 05:11:28;;;;;;;2.92;1.85;;;;;;;20.44;44.21;101467.22;1693650;84;21558;-82
2022/04/30 05:13:54;;;;;;;2.30;1.70;;;;;;;20.45;44.20;101471.61;1693777;84;20976;-82
2022/04/30 05:16:20;;;;;;;2.15;1.77;;;;;;;20.45;44.21;101471.61;1673647;84;21118;-82
2022/04/30 05:18:47;;;;;;;2.65;1.90;;;;;;;20.44;44.20;101471.37;1696843;84;21074;-82
2022/04/30 05:21:13;;;;;;;2.67;1.90;;;;;;;20.45;44.19;101472.98;1693879;84;21031;-82
2022/04/30 05:23:39;;;;;;;2.60;1.77;;;;;;;20.45;44.15;101470.81;1693712;84;21126;-82
2022/04/30 05:26:05;;;;;;;2.98;1.75;;;;;;;20.45;44.19;101470.22;1697049;84;21545;-82
2022/04/30 05:28:32;;;;;;;1.87;1.50;;;;;;;20.46;44.16;101476.02;1695670;83;22113;-82
2022/04/30 05:30:58;;;;;;;2.60;1.85;;;;;;;20.46;44.15;101482.10;1710875;83;21106;-82
2022/04/30 05:33:25;;;;;;;2.10;1.90;;;;;;;20.46;44.15;101482.10;1710911;83;21058;-82
2022/04/30 05:35:51;;;;;;;2.30;1.75;;;;;;;20.46;44.16;101488.45;1711090;83;21075;-82
2022/04/30 05:38:17;;;;;;;2.30;1.70;;;;;;;20.46;44.13;101484.87;1710999;83;21039;-83
2022/04/30 05:40:43;;;;;;;3.15;1.85;;;;;;;20.46;44.14;101487.63;1711004;83;21612;-82
2022/04/30 05:43:09;;;;;;;2.85;2.00;;;;;;;20.46;44.14;101492.60;1711174;82;21102;-82
2022/04/30 05:45:41;;;;;;;2.40;1.80;;;;;;;20.46;44.12;101497.30;1712465;83;21070;-82
2022/04/30 05:48:10;;;;;;;2.45;1.80;;;;;;;20.46;44.11;101498.13;1710952;83;21047;-82
2022/04/30 05:50:36;;;;;;;2.20;1.82;;;;;;;20.46;44.10;101490.39;1711363;83;21047;-82
2022/04/30 05:53:04;;;;;;;2.83;1.77;;;;;;;20.46;44.11;101491.78;1711216;83;22119;-82
2022/04/30 05:55:31;;;;;;;3.02;1.55;;;;;;;20.46;44.11;101499.52;1710787;83;21039;-82
2022/04/30 05:57:57;;;;;;;2.35;1.85;;;;;;;20.46;44.08;101492.60;1711242;83;21477;-82
2022/04/30 06:00:23;;;;;;;3.37;1.92;;;;;;;20.46;44.10;101500.89;1711162;83;21083;-82
2022/04/30 06:02:50;;;;;;;1.80;1.40;;;;;;;20.47;44.10;101503.10;1711046;83;21102;-82
2022/04/30 06:05:16;;;;;;;2.83;1.75;;;;;;;20.47;44.08;101503.10;1711289;83;21132;-82
2022/04/30 06:07:43;;;;;;;1.98;1.60;;;;;;;20.47;44.09;101513.60;1711205;83;21440;-82
2022/04/30 06:10:09;;;;;;;2.70;1.57;;;;;;;20.47;44.10;101512.22;1710948;83;21114;-82
2022/04/30 06:12:35;;;;;;;2.08;1.65;;;;;;;20.47;44.07;101506.69;1711328;82;21594;-82
2022/04/30 06:15:02;;;;;;;2.08;1.55;;;;;;;20.47;44.06;101508.63;1711239;83;21054;-82
2022/04/30 06:17:28;;;;;;;2.10;1.75;;;;;;;20.48;44.06;101506.96;1710906;83;21201;-82
2022/04/30 06:19:54;;;;;;;2.08;1.75;;;;;;;20.48;44.05;101506.13;1688487;83;21015;-82
2022/04/30 06:22:21;;;;;;;1.90;1.67;;;;;;;20.47;44.06;101506.69;1711203;83;21082;-82
2022/04/30 06:24:47;;;;;;;2.22;1.55;;;;;;;20.48;44.06;101506.96;1710816;83;21020;-82
2022/04/30 06:27:19;;;;;;;2.52;1.70;;;;;;;20.48;44.05;101504.20;1711295;82;21074;-82
2022/04/30 06:29:45;;;;;;;2.10;1.55;;;;;;;20.47;44.05;101508.08;1711045;83;21102;-82
2022/04/30 06:32:12;;;;;;;1.87;1.60;;;;;;;20.49;44.04;101509.16;1710879;83;21086;-82
2022/04/30 06:34:39;;;;;;;1.90;1.60;;;;;;;20.48;44.04;101502.81;1688997;83;21697;-82
2022/04/30 06:37:05;;;;;;;2.08;1.65;;;;;;;20.48;44.04;101506.13;1711150;83;21062;-82
2022/04/30 06:39:31;;;;;;;4.47;1.70;;;;;;;20.49;44.02;101507.78;1710899;83;21066;-82
2022/04/30 06:41:57;;;;;;;2.67;1.70;;;;;;;20.49;44.02;101505.02;1711180;83;22121;-82
2022/04/30 06:44:23;;;;;;;2.52;1.72;;;;;;;20.49;44.02;101496.17;1688693;83;20937;-82
2022/04/30 06:46:56;;;;;;;1.98;1.60;;;;;;;20.48;44.02;101502.81;1710966;83;21571;-82
2022/04/30 06:49:23;;;;;;;2.30;1.47;;;;;;;20.49;44.02;101507.78;1711206;83;21035;-82
2022/04/30 06:51:50;;;;;;;2.17;1.70;;;;;;;20.48;44.00;101501.98;1688785;83;21084;-82
2022/04/30 06:57:17;;;;;;;1.90;1.70;;;;;;;20.49;43.98;101507.78;1710757;83;20963;-81
2022/04/30 06:59:41;;;;;;;2.37;1.50;;;;;;;20.50;43.99;101506.64;1710648;83;21635;-82
2022/04/30 07:02:13;;;;;;;1.72;1.52;;;;;;;20.49;43.98;101499.49;1711206;83;21056;-81
2022/04/30 07:04:43;;;;;;;3.87;1.70;;;;;;;20.50;43.97;101502.49;1711271;83;21620;-81
2022/04/30 07:07:09;;;;;;;2.10;1.52;;;;;;;20.49;43.97;101505.02;1710871;83;21112;-81
2022/04/30 07:09:36;;;;;;;1.87;1.40;;;;;;;20.50;43.98;101502.49;1688537;83;21045;-81
2022/04/30 07:12:05;;;;;;;2.90;1.85;;;;;;;20.50;43.98;101503.31;1711115;83;21140;-81
2022/04/30 07:14:35;;;;;;;2.10;1.52;;;;;;;20.51;43.97;101502.20;1710844;83;21091;-81
2022/04/30 07:17:00;;;;;;;1.30;1.20;;;;;;;20.51;43.97;101502.20;1710995;83;22234;-81
2022/04/30 07:19:27;;;;;;;1.90;1.50;;;;;;;20.52;43.96;101507.17;1711116;83;21982;-81
2022/04/30 07:21:53;;;;;;;2.50;1.50;;;;;;;20.53;43.99;101506.62;1712263;83;21074;-81
2022/04/30 07:24:19;;;;;;;1.82;1.50;;;;;;;20.53;43.97;101503.30;1688757;83;21086;-81
2022/04/30 07:26:46;;;;;;;2.47;1.40;;;;;;;20.54;43.96;101502.73;1711162;83;21478;-81
2022/04/30 07:29:12;;;;;;;2.98;1.42;;;;;;;20.54;43.98;101507.68;1710578;83;21007;-81
2022/04/30 07:31:39;;;;;;;2.05;1.70;;;;;;;20.55;43.95;101500.21;1711194;83;21293;-81
2022/04/30 07:34:05;;;;;;;2.05;1.30;;;;;;;20.55;43.96;101506.56;1710717;83;21434;-81
2022/04/30 07:36:31;;;;;;;2.02;1.50;;;;;;;20.55;43.95;101505.74;1710766;83;20987;-81
2022/04/30 07:38:58;;;;;;;1.72;1.57;;;;;;;20.55;43.95;101502.98;1711094;83;21027;-81
2022/04/30 07:41:24;;;;;;;1.65;1.30;;;;;;;20.55;43.96;101505.19;1688785;83;21545;-81
2022/04/30 07:43:51;;;;;;;1.92;1.52;;;;;;;20.56;43.94;101504.07;1710894;83;21116;-81
2022/04/30 07:46:17;;;;;;;1.65;1.30;;;;;;;20.56;43.95;101505.45;1711264;83;21106;-81
2022/04/30 07:48:43;;;;;;;3.17;1.67;;;;;;;20.56;43.95;101499.92;1711285;83;21001;-81
2022/04/30 07:51:18;;;;;;;2.05;1.70;;;;;;;20.56;43.94;101504.63;1710984;83;21039;-81
2022/04/30 07:53:43;;;;;;;2.12;1.60;;;;;;;20.57;43.94;101502.13;1710977;83;20943;-82
2022/04/30 07:56:10;;;;;;;2.12;1.65;;;;;;;20.55;43.93;101504.36;1688917;83;21981;-82
2022/04/30 07:58:36;;;;;;;2.37;1.80;;;;;;;20.56;43.94;101504.07;1710948;82;21077;-82
2022/04/30 08:01:03;;;;;;;1.62;1.52;;;;;;;20.56;43.93;101504.63;1711102;83;21496;-82
2022/04/30 08:03:36;;;;;;;2.10;1.45;;;;;;;20.56;43.92;101501.86;1711222;82;21034;-82
2022/04/30 08:06:03;;;;;;;2.67;1.52;;;;;;;20.55;43.92;101498.27;1710765;83;21058;-82
2022/04/30 08:08:29;;;;;;;2.10;1.45;;;;;;;20.55;43.92;101496.06;1711035;83;22010;-82
2022/04/30 08:10:55;;;;;;;2.27;1.50;;;;;;;20.55;43.92;101501.04;1710997;83;21020;-82
2022/04/30 08:13:21;;;;;;;2.20;1.60;;;;;;;20.55;43.92;101503.80;1711004;83;22035;-82
2022/04/30 08:15:48;;;;;;;1.60;1.30;;;;;;;20.54;43.89;101501.36;1688722;83;21137;-82
2022/04/30 08:18:14;;;;;;;1.82;1.40;;;;;;;20.55;43.88;101493.30;1712723;83;22266;-82
2022/04/30 08:20:40;;;;;;;2.52;1.60;;;;;;;20.55;43.88;101490.53;1710981;83;21251;-82
2022/04/30 08:23:08;;;;;;;1.70;1.40;;;;;;;20.56;43.88;101496.33;1710841;83;37521;-82
2022/04/30 08:25:35;;;;;;;1.75;1.30;;;;;;;20.55;43.91;101490.53;1711225;82;21485;-81
2022/04/30 08:28:05;;;;;;;1.75;1.22;;;;;;;20.55;43.88;101491.36;1710987;83;21232;-81
2022/04/30 08:30:32;;;;;;;1.98;1.47;;;;;;;20.55;43.87;101493.30;1710316;83;21015;-81
2022/04/30 08:32:59;;;;;;;2.35;1.55;;;;;;;20.54;43.86;101488.33;1710896;83;21176;-82
2022/04/30 08:35:25;;;;;;;2.20;1.47;;;;;;;20.55;43.85;101491.36;1710689;83;21472;-82
2022/04/30 08:37:51;;;;;;;2.55;1.72;;;;;;;20.55;43.82;101487.77;1711132;83;21527;-82
2022/04/30 08:40:18;;;;;;;1.62;1.40;;;;;;;20.55;43.84;101483.63;1711100;83;21058;-82
2022/04/30 08:42:44;;;;;;;2.47;1.77;;;;;;;20.54;43.82;101484.19;1711047;83;21166;-82
2022/04/30 08:45:10;;;;;;;3.35;1.50;;;;;;;20.54;43.81;101485.56;1711310;83;21775;-82
2022/04/30 08:47:41;;;;;;;1.60;1.35;;;;;;;20.55;43.82;101486.39;1711049;83;21071;-82
2022/04/30 08:50:08;;;;;;;;;;;;;;;20.53;43.83;101489.48;1713517;83;21117;-82
2022/04/30 08:52:35;;;;;;;2.10;1.40;;;;;;;20.53;43.80;101490.03;1711033;83;20109;-81
2022/04/30 08:55:01;;;;;;;1.57;1.30;;;;;;;20.53;43.84;101490.03;1712488;83;21055;-81
2022/04/30 08:57:28;;;;;;;2.55;1.60;;;;;;;20.50;43.85;101486.73;1711073;83;21634;-82
2022/04/30 08:59:54;;;;;;;3.65;1.55;;;;;;;20.51;43.84;101484.23;1710900;83;21046;-82
2022/04/30 09:02:26;;;;;;;2.30;1.52;;;;;;;20.51;43.83;101487.56;1688370;83;21024;-82
2022/04/30 09:04:54;;;;;;;2.17;1.57;;;;;;;20.51;43.84;101488.38;1710887;83;21352;-82
2022/04/30 09:07:23;;;;;;;1.92;1.50;;;;;;;20.51;43.84;101479.27;1711000;83;21655;-82
2022/04/30 09:09:56;;;;;;;1.60;1.37;;;;;;;20.51;43.86;101477.88;1710951;83;21133;-82
2022/04/30 09:12:23;;;;;;;1.70;1.45;;;;;;;20.51;43.84;101484.23;1710735;83;21492;-81
2022/04/30 09:14:49;;;;;;;4.03;1.52;;;;;;;20.50;43.85;101476.23;1711094;83;21145;-81
2022/04/30 09:17:16;;;;;;;1.77;1.30;;;;;;;20.51;43.86;101480.09;1711126;83;21532;-81
2022/04/30 09:19:56;;;;;;;1.57;1.40;;;;;;;20.51;43.86;101484.80;1710987;83;21114;-82
2022/04/30 09:22:38;;;;;;;2.40;1.52;;;;;;;20.50;43.85;101479.82;1711196;83;21106;-82
2022/04/30 09:25:11;;;;;;;2.50;1.40;;;;;;;20.51;43.82;101482.03;1711058;83;21289;-82
2022/04/30 09:27:36;;;;;;;2.15;1.25;;;;;;;20.50;43.82;101479.82;1709945;83;21106;-82
2022/04/30 09:30:05;;;;;;;1.90;1.47;;;;;;;20.51;43.83;101483.41;1686342;83;21134;-82
2022/04/30 09:32:32;;;;;;;1.82;1.65;;;;;;;20.50;43.82;101474.84;1673722;84;21059;-82
2022/04/30 09:37:52;;;;;;;2.37;1.42;;;;;;;20.50;43.83;101481.76;1693476;84;21020;-81
2022/04/30 09:40:20;;;;;;;1.77;1.45;;;;;;;20.50;43.80;101479.82;1693123;84;21095;-81
2022/04/30 09:42:47;;;;;;;1.90;1.30;;;;;;;20.49;43.82;101480.97;1693604;84;21122;-82
2022/04/30 09:45:31;;;;;;;2.02;1.50;;;;;;;20.50;43.81;101483.97;1693969;84;21079;-82
2022/04/30 09:47:59;;;;;;;2.45;1.60;;;;;;;20.48;43.82;101477.94;1692610;84;21743;-82
2022/04/30 09:56:08;;;;;;;2.25;1.40;;;;;;;20.49;43.78;101468.53;1693684;84;21810;-82
2022/04/30 09:58:39;;;;;;;1.55;1.30;;;;;;;20.48;43.74;101467.44;1693603;84;21083;-82
2022/04/30 10:01:07;;;;;;;1.77;1.40;;;;;;;20.49;43.76;101460.80;1693854;84;20988;-81
2022/04/30 10:03:34;;;;;;;2.30;1.50;;;;;;;20.48;43.77;101457.77;1697090;84;21115;-81
2022/04/30 10:06:04;;;;;;;1.60;1.27;;;;;;;20.47;43.76;101461.08;1693607;84;21028;-80
2022/04/30 10:08:36;;;;;;;2.00;1.47;;;;;;;20.49;43.76;101459.41;1693486;84;21071;-81
2022/04/30 10:11:37;;;;;;;1.90;1.70;;;;;;;20.49;43.76;101453.88;1693593;84;21047;-81
2022/04/30 10:14:15;;;;;;;1.75;1.40;;;;;;;20.49;43.75;101454.70;1687974;84;21210;-82
2022/04/30 10:17:09;;;;;;;2.15;1.37;;;;;;;20.48;43.74;101451.67;1693469;84;21115;-82
2022/04/30 10:19:16;;;;;;;2.08;1.32;;;;;;;20.48;43.72;101443.38;1689568;84;21047;-82
2022/04/30 10:21:43;;;;;;;1.80;1.37;;;;;;;20.49;43.73;101443.65;1692570;84;21035;-81
2022/04/30 10:24:16;;;;;;;2.62;1.60;;;;;;;20.48;43.74;101440.62;1693596;84;21039;-82
2022/04/30 10:27:00;;;;;;;1.95;1.47;;;;;;;20.49;43.73;101445.59;1693739;84;21639;-81
2022/04/30 10:29:27;;;;;;;1.75;1.30;;;;;;;20.50;43.71;101433.39;1693462;84;21067;-82
2022/04/30 10:31:53;;;;;;;1.75;1.30;;;;;;;20.49;43.73;101438.13;1683693;84;21641;-82
2022/04/30 10:34:30;;;;;;;2.08;1.35;;;;;;;20.48;43.70;101429.56;1708547;82;21101;-82
2022/04/30 10:37:02;;;;;;;1.95;1.30;;;;;;;20.49;43.70;101429.83;1708473;84;21099;-82
2022/04/30 10:39:28;;;;;;;1.25;1.15;;;;;;;20.50;43.69;101432.01;1687614;84;21148;-82
2022/04/30 10:41:54;;;;;;;2.42;1.35;;;;;;;20.49;43.68;101425.69;1708871;84;21079;-81
2022/04/30 10:44:31;;;;;;;1.65;1.30;;;;;;;20.49;43.67;101422.09;1708617;84;21011;-81
2022/04/30 10:47:12;;;;;;;1.85;1.35;;;;;;;20.49;43.68;101417.95;1708945;83;21023;-82
2022/04/30 10:49:38;;;;;;;1.60;1.30;;;;;;;20.50;43.67;101424.53;1708705;84;21137;-82
2022/04/30 10:52:06;;;;;;;1.90;1.20;;;;;;;20.50;43.64;101423.72;1708795;84;22156;-82
2022/04/30 10:54:32;;;;;;;1.52;1.30;;;;;;;20.50;43.64;101424.53;1708714;84;21038;-82
2022/04/30 10:57:04;;;;;;;1.60;1.20;;;;;;;20.50;43.62;101419.01;1708665;84;21348;-82
2022/04/30 10:59:30;;;;;;;2.35;1.32;;;;;;;20.50;43.62;101419.01;1708748;84;21015;-82
2022/04/30 11:01:56;;;;;;;2.58;1.57;;;;;;;20.50;43.63;101404.36;1708951;83;21055;-82
2022/04/30 11:04:23;;;;;;;1.67;1.40;;;;;;;20.51;43.60;101401.87;1708947;84;21106;-82
2022/04/30 11:06:51;;;;;;;1.60;1.42;;;;;;;20.50;43.61;101398.28;1708914;84;21098;-82
2022/04/30 11:09:18;;;;;;;1.62;1.30;;;;;;;20.51;43.61;101399.10;1708815;84;21019;-82
2022/04/30 11:11:48;;;;;;;1.77;1.50;;;;;;;20.51;43.59;101398.55;1708646;84;21023;-82
2022/04/30 11:14:16;;;;;;;1.70;1.15;;;;;;;20.51;43.60;101401.31;1708904;83;21078;-81
2022/04/30 11:16:45;;;;;;;2.37;1.52;;;;;;;20.52;43.58;101400.75;1708871;84;22058;-81
2022/04/30 11:19:18;;;;;;;1.95;1.40;;;;;;;20.52;43.56;101396.60;1686022;84;21082;-81
2022/04/30 11:21:51;;;;;;;1.87;1.37;;;;;;;20.51;43.58;101396.34;1708965;84;21026;-81
2022/04/30 11:24:30;;;;;;;1.72;1.17;;;;;;;20.52;43.56;101393.84;1708622;84;21091;-82
2022/04/30 11:26:59;;;;;;;2.00;1.42;;;;;;;20.51;43.55;101389.42;1708720;84;21142;-82
2022/04/30 11:29:26;;;;;;;2.52;1.40;;;;;;;20.50;43.54;101395.52;1707885;83;21287;-81
2022/04/30 11:31:52;;;;;;;1.70;1.20;;;;;;;20.51;43.54;101394.40;1698985;83;22120;-82
2022/04/30 11:34:19;;;;;;;2.15;1.45;;;;;;;20.51;43.55;101386.66;1693711;84;21091;-82
2022/04/30 11:36:53;;;;;;;2.70;1.50;;;;;;;20.51;43.54;101383.90;1693430;84;21127;-82
2022/04/30 11:39:20;;;;;;;2.33;1.30;;;;;;;20.51;43.54;101386.11;1693956;84;21083;-82
2022/04/30 11:41:56;;;;;;;1.40;1.20;;;;;;;20.51;43.52;101387.48;1693815;84;22234;-82
2022/04/30 11:44:25;;;;;;;1.50;1.20;;;;;;;20.51;43.52;101390.25;1693324;84;21009;-82
2022/04/30 11:46:52;;;;;;;2.02;1.60;;;;;;;20.51;43.51;101390.25;1693281;84;21461;-82
2022/04/30 11:49:22;;;;;;;1.82;1.40;;;;;;;20.52;43.52;101382.78;1693458;84;21091;-82
2022/04/30 11:51:49;;;;;;;2.20;1.60;;;;;;;20.52;43.52;101385.55;1692626;84;21561;-82
2022/04/30 11:54:17;;;;;;;2.87;1.60;;;;;;;20.52;43.52;101382.78;1693542;84;21201;-82
2022/04/30 11:56:43;;;;;;;2.83;1.27;;;;;;;20.52;43.51;101381.40;1693449;84;21114;-82
2022/04/30 11:59:10;;;;;;;1.65;1.40;;;;;;;20.52;43.49;101368.96;1673238;84;21091;-82
2022/04/30 12:01:38;;;;;;;2.12;1.47;;;;;;;20.52;43.51;101375.87;1693386;84;21059;-82
2022/04/30 12:04:11;;;;;;;2.02;1.40;;;;;;;20.51;43.49;101375.05;1693729;84;21091;-82